This is the latest recevied weather packets stored in our database for station/object OK3FM-14. If no packets are shown the sender has not sent any weather packets the latest 10 day(s).
| Time | Temp. | Humidity | Pressure | Rain* | Wind** | Luminosity | Snow |
|---|---|---|---|---|---|---|---|
| 1787939247 | 19.44° C | 81% | 1014.6 hPa | - | - | - | - |
| 1787938647 | 19.44° C | 80% | 1014.7 hPa | - | - | - | - |
| 1787938047 | 19.44° C | 79% | 1014.6 hPa | - | - | - | - |
| 1787937447 | 20° C | 76% | 1014.8 hPa | - | - | - | - |
| 1787936847 | 20.56° C | 74% | 1015.2 hPa | - | - | - | - |
| 1787936247 | 20.56° C | 74% | 1015.2 hPa | - | - | - | - |
| 1787935647 | 20° C | 75% | 1015.4 hPa | - | - | - | - |
| 1787935047 | 21.11° C | 72% | 1015.5 hPa | - | - | - | - |
| 1787934447 | 21.11° C | 68% | 1015.6 hPa | - | - | - | - |
| 1787933847 | 21.11° C | 67% | 1015.1 hPa | - | - | - | - |
| 1787933247 | 21.67° C | 62% | 1015.6 hPa | - | - | - | - |
| 1787932647 | 22.22° C | 62% | 1015.7 hPa | - | - | - | - |
| 1787932047 | 22.22° C | 61% | 1015.8 hPa | - | - | - | - |
| 1787931447 | 22.78° C | 60% | 1015.7 hPa | - | - | - | - |
| 1787930847 | 22.22° C | 61% | 1015.3 hPa | - | - | - | - |
| 1787930247 | 22.22° C | 60% | 1014.7 hPa | - | - | - | - |
| 1787929647 | 21.67° C | 61% | 1014.6 hPa | - | - | - | - |
| 1787929047 | 22.22° C | 60% | 1014.6 hPa | - | - | - | - |
| 1787928447 | 22.22° C | 60% | 1014.9 hPa | - | - | - | - |
| 1787927847 | 22.22° C | 60% | 1015 hPa | - | - | - | - |
| 1787927247 | 22.22° C | 60% | 1015 hPa | - | - | - | - |
| 1787926647 | 22.22° C | 61% | 1015.3 hPa | - | - | - | - |
| 1787926047 | 22.22° C | 59% | 1015.5 hPa | - | - | - | - |
| 1787925447 | 22.78° C | 58% | 1015.4 hPa | - | - | - | - |
| 1787924847 | 22.78° C | 59% | 1015.4 hPa | - | - | - | - |
* Rain since midnight (hover to see other rain measurements)
** Current wind speed in m/s (hover to see current wind gust speed)